Time;durP1;ratioP1;P1;durP2;ratioP2;P2;SDS_P1;SDS_P2;PMS_P1;PMS_P2;Temp;Humidity;BMP_temperature;BMP_pressure;BME280_temperature;BME280_humidity;BME280_pressure;Samples;Min_cycle;Max_cycle;Signal;HPM_P1;HPM_P2
2022/08/21 00:01:14;;;;;;;7.80;7.13;;;22.40;99.90;;;;;;6276947;22;20441;-79
2022/08/21 00:03:41;;;;;;;7.70;7.03;;;22.40;99.90;;;;;;6276635;22;20501;-79
2022/08/21 00:06:11;;;;;;;8.73;7.83;;;22.40;99.90;;;;;;6276672;22;20434;-79
2022/08/21 00:08:40;;;;;;;8.60;7.70;;;22.30;99.90;;;;;;6276514;22;20434;-80
2022/08/21 00:11:10;;;;;;;7.90;7.20;;;22.30;99.90;;;;;;6275923;22;20430;-79
2022/08/21 00:13:38;;;;;;;7.90;7.30;;;22.30;99.90;;;;;;6276212;22;20445;-78
2022/08/21 00:16:05;;;;;;;9.03;6.63;;;22.30;99.90;;;;;;6275646;22;20466;-80
2022/08/21 00:18:33;;;;;;;7.63;6.93;;;22.30;99.90;;;;;;6276460;22;20445;-79
2022/08/21 00:21:00;;;;;;;7.63;7.03;;;22.30;99.90;;;;;;6273385;22;20505;-79
2022/08/21 00:23:27;;;;;;;8.33;7.53;;;22.30;99.90;;;;;;6276532;22;20548;-79
2022/08/21 00:25:55;;;;;;;8.27;7.57;;;22.30;99.90;;;;;;6275399;22;20500;-79
2022/08/21 00:28:22;;;;;;;7.93;7.13;;;22.30;99.90;;;;;;6276490;22;20469;-79
2022/08/21 00:30:50;;;;;;;7.30;6.30;;;22.20;99.90;;;;;;6275850;22;20452;-78
2022/08/21 00:33:17;;;;;;;7.97;7.17;;;22.20;99.90;;;;;;6276596;22;20430;-80
2022/08/21 00:35:44;;;;;;;7.70;7.00;;;22.20;99.90;;;;;;6276226;22;20481;-79
2022/08/21 00:38:13;;;;;;;7.77;7.17;;;22.20;99.90;;;;;;6275248;22;20931;-79
2022/08/21 00:40:45;;;;;;;7.53;6.83;;;22.20;99.90;;;;;;6276692;22;20460;-78
2022/08/21 00:43:17;;;;;;;10.83;7.13;;;22.20;99.90;;;;;;6275794;22;20741;-79
2022/08/21 00:45:45;;;;;;;6.00;5.40;;;22.20;99.90;;;;;;6275933;22;21819;-78
2022/08/21 00:48:14;;;;;;;7.77;6.43;;;22.10;99.90;;;;;;6273143;22;20429;-78
2022/08/21 00:50:46;;;;;;;8.00;6.40;;;22.10;99.90;;;;;;6276648;22;20766;-79
2022/08/21 00:53:15;;;;;;;7.83;7.03;;;22.10;99.90;;;;;;6274935;22;20483;-80
2022/08/21 00:55:43;;;;;;;8.43;7.73;;;22.10;99.90;;;;;;6276388;22;20433;-80
2022/08/21 00:58:14;;;;;;;6.77;6.27;;;22.10;99.90;;;;;;6243522;22;20445;-79
2022/08/21 01:00:45;;;;;;;8.60;7.60;;;22.10;99.90;;;;;;6267666;22;20433;-80
2022/08/21 01:03:19;;;;;;;7.43;6.83;;;22.10;99.90;;;;;;6276199;22;20517;-79
2022/08/21 01:05:50;;;;;;;6.80;6.30;;;22.10;99.90;;;;;;6275270;22;20973;-79
2022/08/21 01:08:18;;;;;;;8.47;7.77;;;22.00;99.90;;;;;;6278161;22;20468;-78
2022/08/21 01:10:47;;;;;;;7.87;7.17;;;22.00;99.90;;;;;;6278297;22;20444;-79
2022/08/21 01:13:19;;;;;;;8.93;8.10;;;22.00;99.90;;;;;;6276991;22;20447;-80
2022/08/21 01:15:50;;;;;;;7.67;7.13;;;22.00;99.90;;;;;;6278334;22;20780;-80
2022/08/21 01:18:18;;;;;;;6.80;6.30;;;22.00;99.90;;;;;;6274337;22;20901;-79
2022/08/21 01:20:57;;;;;;;9.07;8.37;;;22.00;99.90;;;;;;6278164;22;20510;-80
2022/08/21 01:23:25;;;;;;;7.87;7.10;;;21.90;99.90;;;;;;6277388;22;20437;-78
2022/08/21 01:25:52;;;;;;;7.97;7.23;;;21.90;99.90;;;;;;6277036;22;20917;-80
2022/08/21 01:28:20;;;;;;;7.20;6.60;;;21.90;99.90;;;;;;6277695;22;20720;-78
2022/08/21 01:30:47;;;;;;;6.97;6.43;;;21.90;99.90;;;;;;6278062;22;20517;-80
2022/08/21 01:33:14;;;;;;;7.73;7.03;;;21.80;99.90;;;;;;6276436;22;20486;-79
2022/08/21 01:35:41;;;;;;;6.97;6.47;;;21.80;99.90;;;;;;6277990;22;20456;-78
2022/08/21 01:38:10;;;;;;;6.97;6.43;;;21.80;99.90;;;;;;6276893;22;20512;-79
2022/08/21 01:40:37;;;;;;;6.80;6.30;;;21.80;99.90;;;;;;6278332;22;20470;-79
2022/08/21 01:43:04;;;;;;;6.23;5.73;;;21.80;99.90;;;;;;6262068;22;20437;-78
2022/08/21 01:45:32;;;;;;;6.20;5.70;;;21.80;99.90;;;;;;6251230;22;20768;-80
2022/08/21 01:48:00;;;;;;;7.10;6.50;;;21.70;99.90;;;;;;6277749;22;20440;-78
2022/08/21 01:50:27;;;;;;;7.23;6.57;;;21.70;99.90;;;;;;6276209;22;20706;-77
2022/08/21 01:52:55;;;;;;;7.77;6.30;;;21.70;99.90;;;;;;6277230;22;20431;-79
2022/08/21 01:55:24;;;;;;;6.13;5.63;;;21.70;99.90;;;;;;6276191;22;20438;-79
2022/08/21 01:57:51;;;;;;;5.73;5.23;;;21.70;99.90;;;;;;6277727;22;20434;-80
2022/08/21 02:00:22;;;;;;;6.90;5.97;;;21.70;99.90;;;;;;6276870;22;20507;-80
2022/08/21 02:02:50;;;;;;;6.90;6.40;;;21.60;99.90;;;;;;6277653;22;20433;-78
2022/08/21 02:05:18;;;;;;;7.10;5.53;;;21.60;99.90;;;;;;6276960;22;20432;-80
2022/08/21 02:07:48;;;;;;;6.77;5.90;;;21.60;99.90;;;;;;6277675;22;20928;-80
2022/08/21 02:10:19;;;;;;;6.47;5.83;;;21.50;99.90;;;;;;6277559;22;20437;-78
2022/08/21 02:12:47;;;;;;;6.00;5.40;;;21.50;99.90;;;;;;6277797;22;20468;-78
2022/08/21 02:15:15;;;;;;;6.50;5.90;;;21.50;99.90;;;;;;6276443;22;20772;-80
2022/08/21 02:17:45;;;;;;;6.37;5.87;;;21.40;99.90;;;;;;6277274;22;20454;-79
2022/08/21 02:20:19;;;;;;;6.50;5.20;;;21.40;99.90;;;;;;6276929;22;20920;-78
2022/08/21 02:22:47;;;;;;;7.03;5.20;;;21.40;99.90;;;;;;6277109;22;20808;-80
2022/08/21 02:25:14;;;;;;;7.10;6.60;;;21.40;99.90;;;;;;6276725;22;20447;-79
2022/08/21 02:27:44;;;;;;;5.83;5.33;;;21.40;99.90;;;;;;6277513;22;20441;-78
2022/08/21 02:30:14;;;;;;;5.87;5.37;;;21.40;99.90;;;;;;6276458;22;20499;-80
2022/08/21 02:32:43;;;;;;;5.80;4.87;;;21.40;99.90;;;;;;6277430;22;20504;-79
2022/08/21 02:35:11;;;;;;;5.00;4.60;;;21.30;99.90;;;;;;6277246;22;20434;-80
2022/08/21 02:37:44;;;;;;;5.27;4.77;;;21.40;99.90;;;;;;6276780;22;20432;-78
2022/08/21 02:40:13;;;;;;;5.80;4.87;;;21.30;99.90;;;;;;6277755;22;20438;-80
2022/08/21 02:42:40;;;;;;;7.60;6.27;;;21.30;99.90;;;;;;6277237;22;20518;-78
2022/08/21 02:45:09;;;;;;;5.57;5.07;;;21.30;99.90;;;;;;6276957;22;20437;-78
2022/08/21 02:47:38;;;;;;;7.03;4.33;;;21.30;99.90;;;;;;6276454;22;20499;-78
2022/08/21 02:50:05;;;;;;;5.93;4.80;;;21.30;99.90;;;;;;6277226;22;20472;-78
2022/08/21 02:52:33;;;;;;;8.70;4.97;;;21.20;99.90;;;;;;6276822;22;20433;-78
2022/08/21 02:55:01;;;;;;;6.83;4.20;;;21.20;99.90;;;;;;6277078;22;20785;-80
2022/08/21 02:57:28;;;;;;;5.07;4.67;;;21.20;99.90;;;;;;6276288;22;20472;-80
2022/08/21 02:59:55;;;;;;;4.83;4.43;;;21.20;99.90;;;;;;6277330;22;20460;-80
2022/08/21 03:02:22;;;;;;;4.53;3.83;;;21.20;99.90;;;;;;6275668;22;20490;-79
2022/08/21 03:04:50;;;;;;;5.73;4.20;;;21.10;99.90;;;;;;6277441;22;20511;-78
2022/08/21 03:07:18;;;;;;;5.13;4.73;;;21.10;99.90;;;;;;6277512;22;20438;-80
2022/08/21 03:09:45;;;;;;;5.00;4.27;;;21.10;99.90;;;;;;6275636;22;20429;-80
2022/08/21 03:12:12;;;;;;;4.40;4.00;;;21.10;99.90;;;;;;6276880;22;20434;-78
2022/08/21 03:14:39;;;;;;;5.17;4.20;;;21.10;99.90;;;;;;6276432;22;20769;-78
2022/08/21 03:17:06;;;;;;;5.33;4.87;;;21.00;99.90;;;;;;6276532;22;20438;-78
2022/08/21 03:19:36;;;;;;;7.00;4.73;;;21.00;99.90;;;;;;6275866;22;20445;-78
2022/08/21 03:22:05;;;;;;;4.10;3.80;;;21.00;99.90;;;;;;6277030;22;20778;-78
2022/08/21 03:24:32;;;;;;;4.00;3.70;;;20.90;99.90;;;;;;6276496;22;20434;-80
2022/08/21 03:26:59;;;;;;;4.80;3.93;;;20.90;99.90;;;;;;6276223;22;20468;-78
2022/08/21 03:29:26;;;;;;;5.80;4.60;;;20.90;99.90;;;;;;6276134;22;20457;-78
2022/08/21 03:31:54;;;;;;;5.70;4.50;;;20.90;99.90;;;;;;6277173;22;20426;-80
2022/08/21 03:34:21;;;;;;;5.20;4.07;;;20.90;99.90;;;;;;6276678;22;20435;-79
2022/08/21 03:36:49;;;;;;;6.47;5.63;;;20.80;99.90;;;;;;6275338;22;20510;-78
2022/08/21 03:39:18;;;;;;;6.67;4.80;;;20.80;99.90;;;;;;6277025;22;20461;-79
2022/08/21 03:41:47;;;;;;;5.23;4.77;;;20.80;99.90;;;;;;6275746;22;20842;-78
2022/08/21 03:44:14;;;;;;;5.40;4.30;;;20.80;99.90;;;;;;6276464;22;20437;-77
2022/08/21 03:46:41;;;;;;;7.77;4.47;;;20.70;99.90;;;;;;6276033;22;20463;-78
2022/08/21 03:49:08;;;;;;;5.70;4.70;;;20.70;99.90;;;;;;6276535;22;20437;-79
2022/08/21 03:51:46;;;;;;;6.20;5.60;;;20.70;99.90;;;;;;6275281;22;20500;-78
2022/08/21 03:54:13;;;;;;;9.83;5.20;;;20.70;99.90;;;;;;6276657;22;20492;-79
2022/08/21 03:56:41;;;;;;;5.60;4.63;;;20.70;99.90;;;;;;6275860;22;20507;-79
2022/08/21 03:59:08;;;;;;;7.00;5.30;;;20.70;99.90;;;;;;6276911;22;20455;-78
2022/08/21 04:01:36;;;;;;;8.70;5.50;;;20.60;99.90;;;;;;6275960;22;20465;-77
2022/08/21 04:04:03;;;;;;;8.27;5.60;;;20.60;99.90;;;;;;6276796;22;20434;-79
2022/08/21 04:06:31;;;;;;;6.97;5.53;;;20.60;99.90;;;;;;6275436;22;20792;-79
2022/08/21 04:08:58;;;;;;;7.00;5.73;;;20.60;99.90;;;;;;6276196;22;20425;-78
2022/08/21 04:11:25;;;;;;;5.90;5.40;;;20.60;99.90;;;;;;6276775;22;20462;-78
2022/08/21 04:13:54;;;;;;;7.10;4.77;;;20.60;99.90;;;;;;6275242;22;20454;-77
2022/08/21 04:16:20;;;;;;;5.90;5.23;;;20.60;99.90;;;;;;6275884;22;20448;-79
2022/08/21 04:18:47;;;;;;;6.47;5.07;;;20.50;99.90;;;;;;6275462;22;20432;-80
2022/08/21 04:21:15;;;;;;;6.73;4.40;;;20.50;99.90;;;;;;6276354;22;20436;-80
2022/08/21 04:23:42;;;;;;;9.73;5.70;;;20.50;99.90;;;;;;6275055;22;20491;-78
2022/08/21 04:26:09;;;;;;;6.13;4.00;;;20.50;99.90;;;;;;6276309;22;20443;-78
2022/08/21 04:28:36;;;;;;;8.23;4.80;;;20.50;99.90;;;;;;6275358;22;20496;-78
2022/08/21 04:31:05;;;;;;;6.67;4.30;;;20.40;99.90;;;;;;6276458;22;20450;-78
2022/08/21 04:33:32;;;;;;;5.73;4.97;;;20.50;99.90;;;;;;6275360;22;20432;-77
2022/08/21 04:35:59;;;;;;;6.83;4.50;;;20.40;99.90;;;;;;6276343;22;20920;-77
2022/08/21 04:38:31;;;;;;;5.67;4.13;;;20.50;99.90;;;;;;6275948;22;20426;-77
2022/08/21 04:40:59;;;;;;;6.87;5.23;;;20.40;99.90;;;;;;6275203;22;20437;-79
2022/08/21 04:43:26;;;;;;;7.80;4.47;;;20.40;99.90;;;;;;6276015;22;20493;-79
2022/08/21 04:45:54;;;;;;;7.63;5.03;;;20.40;99.90;;;;;;6275781;22;20511;-78
2022/08/21 04:48:25;;;;;;;6.63;3.90;;;20.40;99.90;;;;;;6275644;22;20445;-79
2022/08/21 04:50:57;;;;;;;5.03;4.60;;;20.40;99.90;;;;;;6275869;22;20438;-80
2022/08/21 04:53:27;;;;;;;4.67;4.20;;;20.40;99.90;;;;;;6275876;22;20487;-80
2022/08/21 04:55:57;;;;;;;6.20;4.97;;;20.40;99.90;;;;;;6276512;22;20465;-79
2022/08/21 04:58:27;;;;;;;9.23;4.20;;;20.40;99.90;;;;;;6276591;22;20504;-78
2022/08/21 05:00:56;;;;;;;7.07;4.30;;;20.40;99.90;;;;;;6278530;22;20805;-78
2022/08/21 05:03:25;;;;;;;6.33;4.17;;;20.30;99.90;;;;;;6280551;22;20442;-78
2022/08/21 05:05:52;;;;;;;8.30;4.10;;;20.40;99.90;;;;;;6277766;22;20457;-79
2022/08/21 05:08:23;;;;;;;5.20;3.67;;;20.40;99.90;;;;;;6279916;22;20470;-79
2022/08/21 05:10:50;;;;;;;8.20;4.03;;;20.40;99.90;;;;;;6277346;22;20935;-79
2022/08/21 05:13:17;;;;;;;4.13;3.37;;;20.30;99.90;;;;;;6277086;22;20434;-78
2022/08/21 05:15:44;;;;;;;5.93;3.93;;;20.40;99.90;;;;;;6281852;22;20466;-78
2022/08/21 05:18:11;;;;;;;4.47;3.33;;;20.30;99.90;;;;;;6288042;22;20437;-79
2022/08/21 05:20:40;;;;;;;4.87;4.10;;;20.30;99.90;;;;;;6288742;22;20510;-79
2022/08/21 05:23:09;;;;;;;5.63;4.07;;;20.30;99.90;;;;;;6288021;22;20509;-78
2022/08/21 05:25:37;;;;;;;5.97;3.90;;;20.40;99.90;;;;;;6291406;22;20413;-80
2022/08/21 05:28:05;;;;;;;6.67;3.17;;;20.40;99.90;;;;;;6293127;22;20430;-80
2022/08/21 05:30:33;;;;;;;5.40;3.53;;;20.40;99.90;;;;;;6290029;22;20500;-79
2022/08/21 05:33:02;;;;;;;3.60;2.77;;;20.40;99.90;;;;;;6275451;22;20433;-79
2022/08/21 05:35:32;;;;;;;5.83;3.50;;;20.40;99.90;;;;;;6275378;22;20472;-78
2022/08/21 05:38:01;;;;;;;4.60;3.40;;;20.40;99.90;;;;;;6261085;22;20434;-79
2022/08/21 05:40:28;;;;;;;4.80;3.30;;;20.40;99.90;;;;;;6275963;22;20499;-78
2022/08/21 05:42:57;;;;;;;4.47;2.50;;;20.40;99.90;;;;;;6273488;22;20503;-79
2022/08/21 05:45:27;;;;;;;3.63;3.20;;;20.40;99.90;;;;;;6275819;22;20437;-79
2022/08/21 05:47:54;;;;;;;6.73;3.43;;;20.40;99.90;;;;;;6275091;22;20466;-78
2022/08/21 05:50:21;;;;;;;3.40;2.90;;;20.40;99.90;;;;;;6277261;22;20958;-79
2022/08/21 05:52:48;;;;;;;3.40;2.87;;;20.40;99.90;;;;;;6277062;22;20487;-77
2022/08/21 05:55:16;;;;;;;4.40;3.37;;;20.40;99.90;;;;;;6278027;22;20490;-79
2022/08/21 05:57:43;;;;;;;3.67;3.10;;;20.40;99.90;;;;;;6277765;22;20438;-79
2022/08/21 06:00:12;;;;;;;5.00;3.23;;;20.40;99.90;;;;;;6277523;22;20826;-79
2022/08/21 06:02:39;;;;;;;7.43;4.03;;;20.40;99.90;;;;;;6277731;22;20936;-80
2022/08/21 06:05:08;;;;;;;7.03;3.63;;;20.50;99.90;;;;;;6276488;22;20498;-80
2022/08/21 06:07:35;;;;;;;8.60;3.80;;;20.50;99.90;;;;;;6277288;22;20477;-78
2022/08/21 06:10:02;;;;;;;3.70;3.13;;;20.50;99.90;;;;;;6275808;22;20433;-78
2022/08/21 06:12:30;;;;;;;6.83;3.43;;;20.60;99.90;;;;;;6277920;22;20513;-78
2022/08/21 06:14:57;;;;;;;8.43;3.77;;;20.60;99.90;;;;;;6277280;22;20438;-79
2022/08/21 06:17:24;;;;;;;5.27;3.40;;;20.60;99.90;;;;;;6276920;22;20524;-78
2022/08/21 06:19:53;;;;;;;7.37;3.70;;;20.60;99.90;;;;;;6277066;22;20519;-80
2022/08/21 06:22:20;;;;;;;7.83;3.93;;;20.70;99.90;;;;;;6277581;22;20917;-78
2022/08/21 06:24:48;;;;;;;9.33;4.43;;;20.70;99.90;;;;;;6276902;22;20443;-80
2022/08/21 06:27:17;;;;;;;6.23;4.47;;;20.70;99.90;;;;;;6276633;22;20435;-79
2022/08/21 06:29:46;;;;;;;8.47;7.67;;;20.70;99.90;;;;;;6277145;22;20432;-78
2022/08/21 06:32:14;;;;;;;8.23;5.60;;;20.80;99.90;;;;;;6263482;22;20757;-78
2022/08/21 06:34:42;;;;;;;10.47;6.20;;;20.80;99.90;;;;;;6277129;22;20434;-78
2022/08/21 06:37:09;;;;;;;6.00;4.83;;;20.80;99.90;;;;;;6276967;22;20497;-78
2022/08/21 06:39:37;;;;;;;8.53;5.30;;;20.90;99.90;;;;;;6277423;22;20437;-78
2022/08/21 06:42:04;;;;;;;6.53;4.50;;;20.90;99.90;;;;;;6276822;22;20436;-77
2022/08/21 06:44:32;;;;;;;6.70;4.80;;;20.90;99.90;;;;;;6277453;22;20432;-77
2022/08/21 06:47:00;;;;;;;9.17;4.97;;;21.00;99.90;;;;;;6276794;22;20438;-77
2022/08/21 06:49:27;;;;;;;5.97;5.37;;;21.00;99.90;;;;;;6277144;22;20795;-78
2022/08/21 06:51:54;;;;;;;7.03;4.57;;;21.10;99.90;;;;;;6277355;22;20496;-77
2022/08/21 06:54:21;;;;;;;5.83;4.43;;;21.10;99.90;;;;;;6277507;22;21148;-80
2022/08/21 06:56:48;;;;;;;8.30;5.57;;;21.10;99.90;;;;;;6277713;22;20441;-78
2022/08/21 06:59:15;;;;;;;7.20;4.53;;;21.20;99.90;;;;;;6276300;22;20438;-79
2022/08/21 07:01:42;;;;;;;6.13;3.93;;;21.20;99.90;;;;;;6276628;22;20441;-81
2022/08/21 07:04:10;;;;;;;7.77;3.80;;;21.30;99.90;;;;;;6276487;22;20437;-80
2022/08/21 07:06:37;;;;;;;5.13;4.03;;;21.30;99.90;;;;;;6277573;22;20445;-81
2022/08/21 07:09:04;;;;;;;4.50;3.87;;;21.30;99.90;;;;;;6277212;22;20545;-79
2022/08/21 07:11:31;;;;;;;6.67;4.17;;;21.40;99.90;;;;;;6278386;22;20430;-82
2022/08/21 07:13:58;;;;;;;7.30;4.07;;;21.40;99.90;;;;;;6298338;22;20452;-80
2022/08/21 07:16:25;;;;;;;9.03;3.77;;;21.50;99.90;;;;;;6285407;22;20718;-80
2022/08/21 07:18:53;;;;;;;3.40;2.60;;;21.60;99.90;;;;;;6279718;22;20446;-80
2022/08/21 07:21:21;;;;;;;5.60;3.40;;;21.60;99.90;;;;;;6275465;22;20495;-80
2022/08/21 07:23:51;;;;;;;6.73;4.27;;;21.70;99.90;;;;;;6277348;22;20436;-80
2022/08/21 07:26:22;;;;;;;5.60;3.90;;;21.70;99.90;;;;;;6277111;22;20456;-79
2022/08/21 07:28:54;;;;;;;5.30;3.90;;;21.70;99.90;;;;;;6276569;22;20433;-79
2022/08/21 07:31:23;;;;;;;4.17;2.47;;;21.80;99.90;;;;;;6274688;22;20495;-79
2022/08/21 07:33:50;;;;;;;5.77;2.80;;;21.90;99.90;;;;;;6276839;22;20460;-78
2022/08/21 07:36:17;;;;;;;7.73;2.67;;;21.90;99.90;;;;;;6276517;22;20464;-79
2022/08/21 07:38:46;;;;;;;4.27;3.47;;;22.00;99.90;;;;;;6276680;22;20910;-80
2022/08/21 07:41:16;;;;;;;4.40;3.60;;;22.00;99.90;;;;;;6275880;22;20439;-78
2022/08/21 07:43:45;;;;;;;5.83;2.43;;;22.10;99.90;;;;;;6277244;22;20520;-79
2022/08/21 07:46:12;;;;;;;6.13;2.47;;;22.10;99.90;;;;;;6276341;22;20495;-79
2022/08/21 07:48:39;;;;;;;3.70;2.30;;;22.20;99.90;;;;;;6277232;22;20801;-78
2022/08/21 07:51:12;;;;;;;3.30;1.90;;;22.20;99.90;;;;;;6276396;22;20430;-78
2022/08/21 07:53:40;;;;;;;3.30;1.90;;;22.30;99.90;;;;;;6276931;22;20438;-78
2022/08/21 07:56:10;;;;;;;4.00;1.90;;;22.40;99.90;;;;;;6275859;22;20468;-79
2022/08/21 07:58:37;;;;;;;3.83;2.30;;;22.40;99.90;;;;;;6275955;22;20438;-78
2022/08/21 08:01:08;;;;;;;5.00;2.30;;;22.50;99.90;;;;;;6275475;22;20446;-79
2022/08/21 08:03:35;;;;;;;3.30;2.03;;;22.60;99.90;;;;;;6276557;22;20426;-78
2022/08/21 08:06:04;;;;;;;2.37;2.07;;;22.60;99.90;;;;;;6276384;22;20972;-78
2022/08/21 08:08:40;;;;;;;3.80;1.80;;;22.70;99.90;;;;;;6276820;22;20902;-80
2022/08/21 08:11:10;;;;;;;4.43;2.00;;;22.70;99.90;;;;;;6276087;22;20755;-78
2022/08/21 08:13:41;;;;;;;2.93;2.00;;;22.80;99.90;;;;;;6276253;22;20434;-80
2022/08/21 08:16:08;;;;;;;3.93;2.00;;;22.80;99.90;;;;;;6276295;22;20806;-79
2022/08/21 08:18:35;;;;;;;4.10;2.20;;;22.80;99.90;;;;;;6277784;22;20438;-77
2022/08/21 08:21:02;;;;;;;4.47;1.83;;;22.90;99.90;;;;;;6279545;22;20430;-80
2022/08/21 08:23:30;;;;;;;3.53;1.80;;;22.90;99.90;;;;;;6277861;22;20839;-77
2022/08/21 08:25:58;;;;;;;3.50;1.90;;;23.00;99.90;;;;;;6277711;22;20445;-78
2022/08/21 08:28:27;;;;;;;5.10;2.40;;;23.00;99.90;;;;;;6277386;22;20434;-77
2022/08/21 08:30:53;;;;;;;2.23;1.90;;;23.00;99.90;;;;;;6278119;22;20430;-79
2022/08/21 08:33:21;;;;;;;3.97;2.77;;;23.10;99.90;;;;;;6277004;22;20516;-79
2022/08/21 08:35:50;;;;;;;2.97;2.20;;;23.10;99.90;;;;;;6278129;22;20434;-80
2022/08/21 08:38:19;;;;;;;4.47;3.23;;;23.20;99.90;;;;;;6278726;22;20434;-80
2022/08/21 08:41:09;;;;;;;4.40;2.37;;;23.20;99.90;;;;;;6278631;22;20434;-80
2022/08/21 08:43:38;;;;;;;3.53;3.20;;;23.20;99.90;;;;;;6258184;22;20426;-80
2022/08/21 08:46:10;;;;;;;2.93;2.73;;;23.30;99.90;;;;;;6280765;22;20575;-80
2022/08/21 08:48:50;;;;;;;3.33;1.83;;;23.40;99.90;;;;;;6276213;22;20441;-80
2022/08/21 08:51:24;;;;;;;3.37;2.03;;;23.40;99.90;;;;;;6275471;22;20488;-79
2022/08/21 08:53:55;;;;;;;3.10;2.23;;;23.40;99.90;;;;;;6276758;22;20437;-81
2022/08/21 08:56:29;;;;;;;3.37;2.00;;;23.40;99.90;;;;;;6257286;22;20495;-81
2022/08/21 08:59:02;;;;;;;4.90;3.13;;;23.50;99.90;;;;;;6253236;22;20446;-81
2022/08/21 09:01:32;;;;;;;4.97;2.20;;;23.50;99.90;;;;;;6276280;22;20915;-81
2022/08/21 09:03:59;;;;;;;5.27;2.40;;;23.60;99.90;;;;;;6276653;22;20918;-80
2022/08/21 09:06:41;;;;;;;5.77;2.97;;;23.60;99.90;;;;;;6275803;22;20434;-80
2022/08/21 09:09:20;;;;;;;2.20;1.90;;;23.60;99.90;;;;;;6276011;22;20935;-81
2022/08/21 09:11:53;;;;;;;1.73;1.63;;;23.70;99.90;;;;;;6275521;22;20429;-81
2022/08/21 09:14:34;;;;;;;2.20;2.00;;;23.70;99.90;;;;;;6275929;22;20448;-81
2022/08/21 09:17:11;;;;;;;3.57;2.33;;;23.80;99.80;;;;;;6278271;22;20430;-80
2022/08/21 09:19:51;;;;;;;4.07;2.57;;;23.70;99.90;;;;;;6283934;22;20468;-79
2022/08/21 09:22:25;;;;;;;12.23;11.03;;;23.60;99.90;;;;;;6281877;22;20486;-80
2022/08/21 09:25:00;;;;;;;26.07;23.27;;;23.60;99.90;;;;;;6282263;22;20933;-80
2022/08/21 09:27:28;;;;;;;26.10;23.60;;;23.50;99.90;;;;;;6286069;22;20521;-79
2022/08/21 09:29:57;;;;;;;21.30;16.70;;;23.50;99.90;;;;;;6285580;22;20449;-78
2022/08/21 09:32:34;;;;;;;13.93;12.63;;;23.50;99.90;;;;;;6268619;22;20430;-81
2022/08/21 09:35:08;;;;;;;17.00;12.23;;;23.40;99.90;;;;;;6279668;22;20441;-80
2022/08/21 09:37:45;;;;;;;16.77;15.07;;;23.40;99.90;;;;;;6279827;22;20442;-78
2022/08/21 09:40:34;;;;;;;24.70;22.23;;;23.40;99.90;;;;;;6280756;22;20429;-78
2022/08/21 09:43:04;;;;;;;17.37;15.57;;;23.40;99.90;;;;;;6281083;22;20426;-79
2022/08/21 09:45:33;;;;;;;14.43;10.00;;;23.40;99.90;;;;;;6280906;22;20426;-79
2022/08/21 09:48:10;;;;;;;6.30;5.53;;;23.40;99.90;;;;;;6279837;22;20440;-79
2022/08/21 09:50:38;;;;;;;4.13;2.27;;;23.50;99.90;;;;;;6281345;22;20433;-79
2022/08/21 09:53:05;;;;;;;8.07;6.40;;;23.60;99.60;;;;;;6278137;22;20441;-79
2022/08/21 09:58:21;;;;;;;4.87;2.27;;;23.80;99.50;;;;;;6281597;22;21934;-79
2022/08/21 10:00:59;;;;;;;5.80;5.20;;;23.90;99.10;;;;;;6281924;22;20449;-79
2022/08/21 10:03:27;;;;;;;3.80;3.50;;;23.90;99.90;;;;;;6275082;22;20920;-80
2022/08/21 10:05:59;;;;;;;2.73;2.53;;;24.00;99.30;;;;;;6280312;22;20660;-80
2022/08/21 10:08:28;;;;;;;4.43;2.67;;;24.00;98.60;;;;;;6279280;22;20422;-80
2022/08/21 10:10:58;;;;;;;3.97;2.23;;;24.10;98.30;;;;;;6279405;22;20806;-80
2022/08/21 10:13:40;;;;;;;3.00;2.70;;;24.20;97.80;;;;;;6278809;22;20433;-80
2022/08/21 10:16:21;;;;;;;7.77;6.77;;;24.20;97.30;;;;;;6278294;22;20503;-79
2022/08/21 10:19:01;;;;;;;4.70;4.30;;;24.30;97.00;;;;;;6279004;22;20457;-78
2022/08/21 10:21:33;;;;;;;3.40;3.10;;;24.30;99.40;;;;;;6277890;22;20468;-76
2022/08/21 10:24:10;;;;;;;7.40;4.77;;;24.30;97.80;;;;;;6278766;22;20434;-77
2022/08/21 10:26:50;;;;;;;6.20;4.23;;;24.30;98.10;;;;;;6278067;22;20426;-77
2022/08/21 10:29:34;;;;;;;5.40;4.27;;;24.40;97.00;;;;;;6277693;22;20444;-78
2022/08/21 10:32:09;;;;;;;10.70;9.60;;;24.40;97.00;;;;;;6277379;22;20434;-77
2022/08/21 10:34:45;;;;;;;6.80;6.10;;;24.50;97.20;;;;;;6276943;22;20438;-77
2022/08/21 10:37:24;;;;;;;11.63;9.37;;;24.50;96.70;;;;;;6278176;22;20777;-76
2022/08/21 10:40:08;;;;;;;10.03;9.17;;;24.60;96.90;;;;;;6278804;22;20733;-77
2022/08/21 10:42:41;;;;;;;15.57;14.17;;;24.60;96.60;;;;;;6279115;22;20442;-77
2022/08/21 10:45:16;;;;;;;19.90;18.20;;;24.60;96.90;;;;;;6278579;22;20443;-78
2022/08/21 10:47:51;;;;;;;15.63;14.13;;;24.60;97.90;;;;;;6279335;22;20437;-76
2022/08/21 10:50:31;;;;;;;15.53;14.13;;;24.70;96.50;;;;;;6281078;22;20503;-76
2022/08/21 10:53:09;;;;;;;4.87;4.47;;;24.80;95.60;;;;;;6281092;22;20480;-76
2022/08/21 10:55:40;;;;;;;18.13;15.70;;;24.80;94.60;;;;;;6279782;22;20426;-76
2022/08/21 10:58:12;;;;;;;22.70;20.50;;;24.80;95.50;;;;;;6286288;22;20456;-79
2022/08/21 11:00:47;;;;;;;20.27;18.53;;;24.80;98.10;;;;;;6289310;22;20437;-80
2022/08/21 11:03:18;;;;;;;24.83;22.53;;;24.80;97.80;;;;;;6287299;22;20424;-79
2022/08/21 11:05:52;;;;;;;18.70;17.00;;;24.80;98.60;;;;;;6292008;22;20442;-80
2022/08/21 11:08:23;;;;;;;17.37;15.77;;;24.90;97.90;;;;;;6295599;22;20417;-79
2022/08/21 11:10:58;;;;;;;18.33;16.77;;;24.90;97.80;;;;;;6296828;22;20434;-79
2022/08/21 11:13:32;;;;;;;15.63;14.20;;;24.90;97.40;;;;;;6295578;22;21372;-78
2022/08/21 11:16:11;;;;;;;17.77;16.27;;;25.00;96.50;;;;;;6293846;22;20433;-79
2022/08/21 11:18:44;;;;;;;14.00;12.70;;;25.00;97.30;;;;;;6296608;22;20460;-79
2022/08/21 11:21:29;;;;;;;6.00;5.10;;;25.00;96.50;;;;;;6278310;22;20425;-80
2022/08/21 11:24:16;;;;;;;11.17;10.17;;;25.00;95.40;;;;;;6288207;22;20441;-82
2022/08/21 11:26:49;;;;;;;8.00;7.27;;;25.10;95.60;;;;;;6291021;22;20492;-79
2022/08/21 11:29:25;;;;;;;6.93;6.33;;;25.20;94.70;;;;;;6290868;22;20429;-79
2022/08/21 11:32:05;;;;;;;7.90;6.87;;;25.30;92.70;;;;;;6293063;22;20491;-79
2022/08/21 11:34:45;;;;;;;7.17;6.47;;;25.40;93.50;;;;;;6298012;22;20430;-79
2022/08/21 11:37:18;;;;;;;6.50;6.00;;;25.40;94.20;;;;;;6297658;22;20438;-79
2022/08/21 11:39:57;;;;;;;6.03;5.13;;;25.40;94.30;;;;;;6299231;22;20465;-79
2022/08/21 11:42:31;;;;;;;7.10;6.40;;;25.40;94.00;;;;;;6295742;22;20452;-78
2022/08/21 11:45:14;;;;;;;4.57;4.17;;;25.30;93.40;;;;;;6284205;22;20438;-79
2022/08/21 11:47:56;;;;;;;4.10;3.70;;;25.30;93.10;;;;;;6276414;22;20457;-79
2022/08/21 11:50:28;;;;;;;2.73;2.53;;;25.40;92.60;;;;;;6275010;22;20501;-78
2022/08/21 11:53:13;;;;;;;3.07;2.50;;;25.40;92.10;;;;;;6275827;22;20469;-79
2022/08/21 11:55:44;;;;;;;2.53;2.33;;;25.40;91.80;;;;;;6276895;22;20430;-79
2022/08/21 11:58:29;;;;;;;2.30;2.10;;;25.40;91.80;;;;;;6276241;22;20505;-80
2022/08/21 12:01:01;;;;;;;2.60;2.33;;;25.50;90.80;;;;;;6273371;22;20425;-81
2022/08/21 12:03:32;;;;;;;2.70;2.50;;;25.60;90.90;;;;;;6276564;22;20430;-79
2022/08/21 12:06:05;;;;;;;2.93;2.70;;;25.60;90.80;;;;;;6275152;22;20460;-79
2022/08/21 12:08:34;;;;;;;2.10;1.90;;;25.60;90.60;;;;;;6275869;22;20449;-80
2022/08/21 12:11:06;;;;;;;2.27;2.10;;;25.60;90.50;;;;;;6275842;22;20533;-79
2022/08/21 12:13:35;;;;;;;3.50;2.20;;;25.60;90.20;;;;;;6261749;22;20759;-80
2022/08/21 12:16:11;;;;;;;2.13;1.87;;;25.60;89.70;;;;;;6275630;22;20724;-79
2022/08/21 12:18:39;;;;;;;3.07;1.50;;;25.60;89.10;;;;;;6275058;22;20918;-79
2022/08/21 12:21:21;;;;;;;1.93;1.77;;;25.60;88.40;;;;;;6275369;22;20449;-77
2022/08/21 12:24:04;;;;;;;3.50;1.63;;;25.70;86.70;;;;;;6279466;22;20929;-78
2022/08/21 12:26:34;;;;;;;3.00;1.70;;;25.60;87.90;;;;;;6280533;22;20426;-80
2022/08/21 12:29:11;;;;;;;3.30;1.97;;;25.60;88.30;;;;;;6278826;22;20452;-80
2022/08/21 12:31:53;;;;;;;1.87;1.77;;;25.60;88.20;;;;;;6277709;22;20426;-82
2022/08/21 12:34:23;;;;;;;1.77;1.60;;;25.60;86.90;;;;;;6279311;22;20437;-80
2022/08/21 12:37:04;;;;;;;2.80;1.60;;;25.50;88.10;;;;;;6247969;22;20520;-80
2022/08/21 12:39:35;;;;;;;1.70;1.40;;;25.50;87.70;;;;;;6270687;22;20430;-79
2022/08/21 12:42:07;;;;;;;1.97;1.20;;;25.50;87.80;;;;;;6276203;22;20433;-79
2022/08/21 12:44:44;;;;;;;1.83;1.53;;;25.50;87.60;;;;;;6278577;22;20453;-80
2022/08/21 12:47:19;;;;;;;1.23;1.13;;;25.50;86.20;;;;;;6276628;22;20422;-80
2022/08/21 12:49:55;;;;;;;1.73;1.47;;;25.60;84.70;;;;;;6276716;22;20445;-79
2022/08/21 12:52:29;;;;;;;1.50;1.40;;;25.50;84.30;;;;;;6277596;22;20425;-79
2022/08/21 12:54:56;;;;;;;2.83;1.63;;;25.50;83.70;;;;;;6275975;22;20457;-78
2022/08/21 13:00:38;;;;;;;2.47;1.70;;;25.50;85.50;;;;;;6252436;22;20422;-79
2022/08/21 13:03:08;;;;;;;1.57;1.40;;;25.60;85.90;;;;;;6276120;22;20417;-79
2022/08/21 13:05:38;;;;;;;2.00;1.60;;;25.60;85.20;;;;;;6275975;22;20801;-80
2022/08/21 13:08:09;;;;;;;3.93;1.77;;;25.60;87.00;;;;;;6276683;22;20491;-80